Terminal Aerodrome Forecast
Issued by NWS

Home | Current Version | Previous Version | Text Only | Print | Product List | Glossary On
Versions: 1 2 3 4 5 6 7 8 9 10 11 12 13 14 15 16 17 18 19
000
FTUS43 KDVN 181100
TAFCID
TAF
KCID 181136Z 1812/1912 VRB02KT 5SM BR SKC
     FM181400 12007KT P6SM SCT040
     FM190000 11003KT P6SM SKC=

USA.gov is the U.S. government's official web portal to all federal, state and local government web resources and services.